createdAt,value
2017-11-15T00:00:21.964Z,78.88
2017-11-15T00:01:23.841Z,79.44
2017-11-15T00:02:25.657Z,79.06
2017-11-15T00:03:27.469Z,79.25
2017-11-15T00:04:29.343Z,79.92
2017-11-15T00:05:31.219Z,80.30
2017-11-15T00:06:33.099Z,80.11
2017-11-15T00:07:47.246Z,80.58
2017-11-15T00:08:49.122Z,80.49
2017-11-15T00:09:51.003Z,80.68
2017-11-15T00:10:52.884Z,80.87
2017-11-15T00:11:54.693Z,80.77
2017-11-15T00:12:56.505Z,80.96
2017-11-15T00:13:58.380Z,81.44
2017-11-15T00:15:00.259Z,81.73
2017-11-15T00:16:02.138Z,81.63
2017-11-15T00:17:16.285Z,81.54
2017-11-15T00:18:18.162Z,81.73
2017-11-15T00:19:20.042Z,81.44
2017-11-15T00:20:21.917Z,81.54
2017-11-15T00:21:23.731Z,81.92
2017-11-15T00:22:25.544Z,82.20
2017-11-15T00:23:27.417Z,82.29
2017-11-15T00:24:29.296Z,82.29
2017-11-15T00:25:31.174Z,82.29
2017-11-15T00:26:45.323Z,82.39
2017-11-15T00:27:47.200Z,82.29
2017-11-15T00:28:49.078Z,81.73
2017-11-15T00:29:50.955Z,81.73
2017-11-15T00:30:52.769Z,81.73
2017-11-15T00:31:54.582Z,82.01
2017-11-15T00:32:56.465Z,81.48
2017-11-15T00:33:58.336Z,81.20
2017-11-15T00:35:00.214Z,81.10
2017-11-15T00:36:14.367Z,80.24
2017-11-15T00:37:16.245Z,80.15
2017-11-15T00:38:18.126Z,80.44
2017-11-15T00:39:20.015Z,79.86
2017-11-15T00:40:21.825Z,80.24
2017-11-15T00:41:23.640Z,80.34
2017-11-15T00:42:25.520Z,80.63
2017-11-15T00:43:27.397Z,80.77
2017-11-15T00:44:29.278Z,80.53
2017-11-15T00:45:43.434Z,80.44
2017-11-15T00:46:45.312Z,80.44
2017-11-15T00:47:47.194Z,80.24
2017-11-15T00:48:49.072Z,79.68
2017-11-15T00:49:50.893Z,80.53
2017-11-15T00:50:52.710Z,80.11
2017-11-15T00:51:54.588Z,80.49
2017-11-15T00:52:56.467Z,80.49
2017-11-15T00:53:58.348Z,80.68
2017-11-15T00:55:12.502Z,81.54
2017-11-15T00:56:14.381Z,82.10
2017-11-15T00:57:16.263Z,82.29
2017-11-15T00:58:18.147Z,82.39
2017-11-15T00:59:19.956Z,82.20
2017-11-15T01:00:21.772Z,82.10
2017-11-15T01:01:23.645Z,82.20
2017-11-15T01:02:25.520Z,82.20
2017-11-15T01:03:27.398Z,82.87
2017-11-15T01:04:41.549Z,83.44
2017-11-15T01:05:43.426Z,82.81
2017-11-15T01:06:45.304Z,82.39
2017-11-15T01:07:47.180Z,82.39
2017-11-15T01:08:48.996Z,81.73
2017-11-15T01:09:50.811Z,82.10
2017-11-15T01:10:52.688Z,82.49
2017-11-15T01:11:54.569Z,82.87
2017-11-15T01:12:56.449Z,82.39
2017-11-15T01:14:10.604Z,82.49
2017-11-15T01:15:12.487Z,82.68
2017-11-15T01:16:14.358Z,82.49
2017-11-15T01:17:16.235Z,82.77
2017-11-15T01:18:18.050Z,82.29
2017-11-15T01:19:19.865Z,82.68
2017-11-15T01:20:21.743Z,82.10
2017-11-15T01:21:23.620Z,82.20
2017-11-15T01:22:25.501Z,82.68
2017-11-15T01:23:39.649Z,82.77
2017-11-15T01:24:41.525Z,82.68
2017-11-15T01:25:43.403Z,82.58
2017-11-15T01:26:45.280Z,82.68
2017-11-15T01:27:47.094Z,82.29
2017-11-15T01:28:48.908Z,82.68
2017-11-15T01:29:50.783Z,83.34
2017-11-15T01:30:52.671Z,83.25
2017-11-15T01:31:54.549Z,83.15
2017-11-15T01:33:08.698Z,84.10
2017-11-15T01:34:10.576Z,84.20
2017-11-15T01:35:12.461Z,83.62
2017-11-15T01:36:14.333Z,83.44
2017-11-15T01:37:16.149Z,83.53
2017-11-15T01:38:17.959Z,82.96
2017-11-15T01:39:19.839Z,83.53
2017-11-15T01:40:21.714Z,83.44
2017-11-15T01:41:23.600Z,83.53
2017-11-15T01:42:37.741Z,83.25
2017-11-15T01:43:39.619Z,83.25
2017-11-15T01:44:41.496Z,83.53
2017-11-15T01:45:43.373Z,83.15
2017-11-15T01:46:45.187Z,83.44
2017-11-15T01:47:47.002Z,83.29
2017-11-15T01:48:48.878Z,83.00
2017-11-15T01:49:50.753Z,82.43
2017-11-15T01:50:52.632Z,82.15
2017-11-15T01:52:06.781Z,82.43
2017-11-15T01:53:08.657Z,81.86
2017-11-15T01:54:10.536Z,82.53
2017-11-15T01:55:12.409Z,82.05
2017-11-15T01:56:14.225Z,81.86
2017-11-15T01:57:16.038Z,82.15
2017-11-15T01:58:17.913Z,82.71
2017-11-15T01:59:19.790Z,81.96
2017-11-15T02:00:21.672Z,82.10
2017-11-15T02:01:35.819Z,82.34
2017-11-15T02:02:37.695Z,82.05
2017-11-15T02:03:39.583Z,82.15
2017-11-15T02:04:41.450Z,82.34
2017-11-15T02:05:43.265Z,82.34
2017-11-15T02:06:45.077Z,82.43
2017-11-15T02:07:46.949Z,82.24
2017-11-15T02:08:48.828Z,82.05
2017-11-15T02:09:50.708Z,81.77
2017-11-15T02:11:04.857Z,82.05
2017-11-15T02:12:06.734Z,81.96
2017-11-15T02:13:08.620Z,81.67
2017-11-15T02:14:10.490Z,81.96
2017-11-15T02:15:12.313Z,82.34
2017-11-15T02:16:14.119Z,82.43
2017-11-15T02:17:15.996Z,82.53
2017-11-15T02:18:17.871Z,82.34
2017-11-15T02:19:19.751Z,82.43
2017-11-15T02:20:33.909Z,82.15
2017-11-15T02:21:35.774Z,82.53
2017-11-15T02:22:37.653Z,82.43
2017-11-15T02:23:39.530Z,82.43
2017-11-15T02:24:41.345Z,81.96
2017-11-15T02:25:43.158Z,82.43
2017-11-15T02:26:45.033Z,82.05
2017-11-15T02:27:46.909Z,82.49
2017-11-15T02:28:48.788Z,83.06
2017-11-15T02:30:02.948Z,83.34
2017-11-15T02:31:04.815Z,83.76
2017-11-15T02:32:06.696Z,84.01
2017-11-15T02:33:08.578Z,83.72
2017-11-15T02:34:10.395Z,83.91
2017-11-15T02:35:12.216Z,84.01
2017-11-15T02:36:14.085Z,83.91
2017-11-15T02:37:15.963Z,84.67
2017-11-15T02:38:17.844Z,84.86
2017-11-15T02:39:32.040Z,85.62
2017-11-15T02:40:33.917Z,85.53
2017-11-15T02:41:35.802Z,85.62
2017-11-15T02:42:37.678Z,85.53
2017-11-15T02:43:39.489Z,85.91
2017-11-15T02:44:41.309Z,85.91
2017-11-15T02:45:43.185Z,85.91
2017-11-15T02:46:45.071Z,86.00
2017-11-15T02:47:46.943Z,86.00
2017-11-15T02:49:01.099Z,86.38
2017-11-15T02:50:02.970Z,86.57
2017-11-15T02:51:04.849Z,86.91
2017-11-15T02:52:06.728Z,86.91
2017-11-15T02:53:08.539Z,86.82
2017-11-15T02:54:10.353Z,86.82
2017-11-15T02:55:12.228Z,86.82
2017-11-15T02:56:14.107Z,86.72
2017-11-15T02:57:15.985Z,86.91
2017-11-15T02:58:30.133Z,86.67
2017-11-15T02:59:32.012Z,87.48
2017-11-15T03:00:33.896Z,87.43
2017-11-15T03:01:35.781Z,87.14
2017-11-15T03:02:37.587Z,87.14
2017-11-15T03:03:39.399Z,86.67
2017-11-15T03:04:41.281Z,87.24
2017-11-15T03:05:43.158Z,87.19
2017-11-15T03:06:45.038Z,87.43
2017-11-15T03:07:59.185Z,87.52
2017-11-15T03:09:01.062Z,87.24
2017-11-15T03:10:02.944Z,86.95
2017-11-15T03:11:04.822Z,86.86
2017-11-15T03:12:06.639Z,87.05
2017-11-15T03:13:08.451Z,86.95
2017-11-15T03:14:10.327Z,86.95
2017-11-15T03:15:12.201Z,87.43
2017-11-15T03:16:14.083Z,86.29
2017-11-15T03:17:28.241Z,86.76
2017-11-15T03:18:30.116Z,87.14
2017-11-15T03:19:32.005Z,86.38
2017-11-15T03:20:33.878Z,86.95
2017-11-15T03:21:35.684Z,87.14
2017-11-15T03:22:37.502Z,86.76
2017-11-15T03:23:39.377Z,86.67
2017-11-15T03:24:41.253Z,87.43
2017-11-15T03:25:43.137Z,87.43
2017-11-15T03:26:57.280Z,87.71
2017-11-15T03:27:59.159Z,87.81
2017-11-15T03:29:01.039Z,87.43
2017-11-15T03:30:02.924Z,87.81
2017-11-15T03:31:04.735Z,88.67
2017-11-15T03:32:06.546Z,88.15
2017-11-15T03:33:08.424Z,88.90
2017-11-15T03:34:10.298Z,89.09
2017-11-15T03:35:12.179Z,89.19
2017-11-15T03:36:26.326Z,89.28
2017-11-15T03:37:28.202Z,88.90
2017-11-15T03:38:30.084Z,89.19
2017-11-15T03:39:31.965Z,88.71
2017-11-15T03:40:33.780Z,89.67
2017-11-15T03:41:35.642Z,89.57
2017-11-15T03:42:37.527Z,89.28
2017-11-15T03:43:39.416Z,89.04
2017-11-15T03:44:41.294Z,88.76
2017-11-15T03:45:55.442Z,88.95
2017-11-15T03:46:57.319Z,89.04
2017-11-15T03:47:59.207Z,88.19
2017-11-15T03:49:01.081Z,88.19
2017-11-15T03:50:02.895Z,88.19
2017-11-15T03:51:04.730Z,87.90
2017-11-15T03:52:06.589Z,88.38
2017-11-15T03:53:08.466Z,88.19
2017-11-15T03:54:10.348Z,87.90
2017-11-15T03:55:24.493Z,87.71
2017-11-15T03:56:26.373Z,87.71
2017-11-15T03:57:28.253Z,87.71
2017-11-15T03:58:30.131Z,87.52
2017-11-15T03:59:31.945Z,88.57
2017-11-15T04:00:33.756Z,88.47
2017-11-15T04:01:35.632Z,87.90
2017-11-15T04:02:37.514Z,88.19
2017-11-15T04:03:39.393Z,88.38
2017-11-15T04:04:53.541Z,88.47
2017-11-15T04:05:55.420Z,88.85
2017-11-15T04:06:57.305Z,88.15
2017-11-15T04:07:59.211Z,88.00
2017-11-15T04:09:01.027Z,88.28
2017-11-15T04:10:02.837Z,88.38
2017-11-15T04:11:04.714Z,88.38
2017-11-15T04:12:06.596Z,88.28
2017-11-15T04:13:08.479Z,88.09
2017-11-15T04:14:22.629Z,88.47
2017-11-15T04:15:24.505Z,87.34
2017-11-15T04:16:26.390Z,87.90
2017-11-15T04:17:28.265Z,87.90
2017-11-15T04:18:30.082Z,87.62
2017-11-15T04:19:31.894Z,87.43
2017-11-15T04:20:33.774Z,87.14
2017-11-15T04:21:35.652Z,86.95
2017-11-15T04:22:37.533Z,86.67
2017-11-15T04:23:51.683Z,87.24
2017-11-15T04:24:53.563Z,87.52
2017-11-15T04:25:55.458Z,87.81
2017-11-15T04:26:57.327Z,87.24
2017-11-15T04:27:59.139Z,87.52
2017-11-15T04:29:00.953Z,87.43
2017-11-15T04:30:02.832Z,87.14
2017-11-15T04:31:04.712Z,86.76
2017-11-15T04:32:06.594Z,86.86
2017-11-15T04:33:20.791Z,87.14
2017-11-15T04:34:22.670Z,86.95
2017-11-15T04:35:24.550Z,87.05
2017-11-15T04:36:26.429Z,86.95
2017-11-15T04:37:28.241Z,87.05
2017-11-15T04:38:30.054Z,87.05
2017-11-15T04:39:31.933Z,86.95
2017-11-15T04:40:33.805Z,86.67
2017-11-15T04:41:35.687Z,86.61
2017-11-15T04:42:49.884Z,86.33
2017-11-15T04:43:51.781Z,85.86
2017-11-15T04:44:53.647Z,85.76
2017-11-15T04:45:55.523Z,85.76
2017-11-15T04:46:57.335Z,85.57
2017-11-15T04:47:59.149Z,85.38
2017-11-15T04:49:01.027Z,85.28
2017-11-15T04:50:02.903Z,85.00
2017-11-15T04:51:04.786Z,84.81
2017-11-15T04:52:18.984Z,85.00
2017-11-15T04:53:20.862Z,84.91
2017-11-15T04:54:22.747Z,84.52
2017-11-15T04:55:24.626Z,84.72
2017-11-15T04:56:26.440Z,84.72
2017-11-15T04:57:28.258Z,84.05
2017-11-15T04:58:30.130Z,84.33
2017-11-15T04:59:32.006Z,84.05
2017-11-15T05:00:33.888Z,84.24
2017-11-15T05:01:48.091Z,84.47
2017-11-15T05:02:49.965Z,84.09
2017-11-15T05:03:51.849Z,83.95
2017-11-15T05:04:53.726Z,84.28
2017-11-15T05:05:55.539Z,83.76
2017-11-15T05:06:57.361Z,83.95
2017-11-15T05:07:59.233Z,84.09
2017-11-15T05:09:01.110Z,83.62
2017-11-15T05:10:02.995Z,84.00
2017-11-15T05:11:17.141Z,83.81
2017-11-15T05:12:19.019Z,83.67
2017-11-15T05:13:20.905Z,83.48
2017-11-15T05:14:22.780Z,84.19
2017-11-15T05:15:24.593Z,83.95
2017-11-15T05:16:26.405Z,83.95
2017-11-15T05:17:28.286Z,84.05
2017-11-15T05:18:30.161Z,84.28
2017-11-15T05:19:32.039Z,84.37
2017-11-15T05:20:46.195Z,83.81
2017-11-15T05:21:48.075Z,83.71
2017-11-15T05:22:49.957Z,83.81
2017-11-15T05:23:51.834Z,83.52
2017-11-15T05:24:53.649Z,83.58
2017-11-15T05:25:55.462Z,82.95
2017-11-15T05:26:57.339Z,83.14
2017-11-15T05:27:59.216Z,83.04
2017-11-15T05:29:01.093Z,83.04
2017-11-15T05:30:15.246Z,82.86
2017-11-15T05:31:17.127Z,83.04
2017-11-15T05:32:19.012Z,82.86
2017-11-15T05:33:20.888Z,82.76
2017-11-15T05:34:22.729Z,82.67
2017-11-15T05:35:24.543Z,82.62
2017-11-15T05:36:26.418Z,82.24
2017-11-15T05:37:28.298Z,82.53
2017-11-15T05:38:30.179Z,82.53
2017-11-15T05:39:44.328Z,82.43
2017-11-15T05:40:46.211Z,82.05
2017-11-15T05:41:48.094Z,82.05
2017-11-15T05:42:49.971Z,82.53
2017-11-15T05:43:51.787Z,82.34
2017-11-15T05:44:53.604Z,82.43
2017-11-15T05:45:55.482Z,81.86
2017-11-15T05:46:57.359Z,81.96
2017-11-15T05:47:59.259Z,81.96
2017-11-15T05:49:13.393Z,81.86
2017-11-15T05:50:15.273Z,81.48
2017-11-15T05:51:17.166Z,80.91
2017-11-15T05:52:19.037Z,81.29
2017-11-15T05:53:20.851Z,81.29
2017-11-15T05:54:22.666Z,81.20
2017-11-15T05:55:24.542Z,81.29
2017-11-15T05:56:26.421Z,80.91
2017-11-15T05:57:28.302Z,81.29
2017-11-15T05:58:42.450Z,81.20
2017-11-15T05:59:44.332Z,81.58
2017-11-15T06:00:46.213Z,81.48
2017-11-15T06:01:48.093Z,81.58
2017-11-15T06:02:49.906Z,81.96
2017-11-15T06:03:51.719Z,81.86
2017-11-15T06:04:53.604Z,81.86
2017-11-15T06:05:55.477Z,81.77
2017-11-15T06:06:57.359Z,81.58
2017-11-15T06:08:11.513Z,81.96
2017-11-15T06:09:13.392Z,81.86
2017-11-15T06:10:15.274Z,81.67
2017-11-15T06:11:17.171Z,81.73
2017-11-15T06:12:19.017Z,82.01
2017-11-15T06:13:20.826Z,81.82
2017-11-15T06:14:22.708Z,82.39
2017-11-15T06:15:24.564Z,82.20
2017-11-15T06:16:26.424Z,82.29
2017-11-15T06:17:40.606Z,82.29
2017-11-15T06:18:42.507Z,82.29
2017-11-15T06:19:44.379Z,82.29
2017-11-15T06:20:46.241Z,82.58
2017-11-15T06:21:48.050Z,82.39
2017-11-15T06:22:49.853Z,82.29
2017-11-15T06:23:51.830Z,82.29
2017-11-15T06:24:53.615Z,82.01
2017-11-15T06:25:55.498Z,82.49
2017-11-15T06:27:09.664Z,82.10
2017-11-15T06:28:11.608Z,82.87
2017-11-15T06:29:13.417Z,82.49
2017-11-15T06:30:15.403Z,82.39
2017-11-15T06:31:17.217Z,82.39
2017-11-15T06:32:19.022Z,82.29
2017-11-15T06:33:20.847Z,82.39
2017-11-15T06:34:22.714Z,82.39
2017-11-15T06:35:24.707Z,82.29
2017-11-15T06:36:38.819Z,82.29
2017-11-15T06:37:40.652Z,82.15
2017-11-15T06:38:42.498Z,82.34
2017-11-15T06:39:44.382Z,82.15
2017-11-15T06:40:46.199Z,82.29
2017-11-15T06:41:48.013Z,82.24
2017-11-15T06:42:49.893Z,82.53
2017-11-15T06:43:51.777Z,82.34
2017-11-15T06:44:53.658Z,82.62
2017-11-15T06:46:07.860Z,82.34
2017-11-15T06:47:09.741Z,82.53
2017-11-15T06:48:11.627Z,82.34
2017-11-15T06:49:13.509Z,82.53
2017-11-15T06:50:15.327Z,82.43
2017-11-15T06:51:17.143Z,82.53
2017-11-15T06:52:19.025Z,82.34
2017-11-15T06:53:20.907Z,82.34
2017-11-15T06:54:22.788Z,82.34
2017-11-15T06:55:36.944Z,81.86
2017-11-15T06:56:38.825Z,82.05
2017-11-15T06:57:40.711Z,82.24
2017-11-15T06:58:42.593Z,81.86
2017-11-15T06:59:44.412Z,81.67
2017-11-15T07:00:46.234Z,81.29
2017-11-15T07:01:48.108Z,81.48
2017-11-15T07:02:49.995Z,81.48
2017-11-15T07:03:51.879Z,81.48
2017-11-15T07:05:06.030Z,81.05
2017-11-15T07:06:07.920Z,81.33
2017-11-15T07:07:09.798Z,81.29
2017-11-15T07:08:11.681Z,81.29
2017-11-15T07:09:13.500Z,81.14
2017-11-15T07:10:15.317Z,80.86
2017-11-15T07:11:17.198Z,80.66
2017-11-15T07:12:19.084Z,80.95
2017-11-15T07:13:20.967Z,80.57
2017-11-15T07:14:35.122Z,80.29
2017-11-15T07:15:37.002Z,80.47
2017-11-15T07:16:38.887Z,80.19
2017-11-15T07:17:40.771Z,79.91
2017-11-15T07:18:42.588Z,79.91
2017-11-15T07:19:44.402Z,79.91
2017-11-15T07:20:46.283Z,80.00
2017-11-15T07:21:48.165Z,79.91
2017-11-15T07:22:50.048Z,79.81
2017-11-15T07:24:04.201Z,79.52
2017-11-15T07:25:06.082Z,79.81
2017-11-15T07:26:07.967Z,79.33
2017-11-15T07:27:09.852Z,79.24
2017-11-15T07:28:11.669Z,79.62
2017-11-15T07:29:13.492Z,80.00
2017-11-15T07:30:15.372Z,79.91
2017-11-15T07:31:17.259Z,79.62
2017-11-15T07:32:19.145Z,79.24
2017-11-15T07:33:33.298Z,79.14
2017-11-15T07:34:35.181Z,78.67
2017-11-15T07:35:37.066Z,78.77
2017-11-15T07:36:38.949Z,78.33
2017-11-15T07:37:40.772Z,78.23
2017-11-15T07:38:42.591Z,77.47
2017-11-15T07:39:44.473Z,77.76
2017-11-15T07:40:46.358Z,77.56
2017-11-15T07:41:48.245Z,77.37
2017-11-15T07:43:02.399Z,77.56
2017-11-15T07:44:04.282Z,77.56
2017-11-15T07:45:06.167Z,77.28
2017-11-15T07:46:08.053Z,77.37
2017-11-15T07:47:09.876Z,77.47
2017-11-15T07:48:11.692Z,76.90
2017-11-15T07:49:13.576Z,77.09
2017-11-15T07:50:15.460Z,77.56
2017-11-15T07:51:17.355Z,77.19
2017-11-15T07:52:31.509Z,77.37
2017-11-15T07:53:33.392Z,77.37
2017-11-15T07:54:35.280Z,77.00
2017-11-15T07:55:37.165Z,77.00
2017-11-15T07:56:38.989Z,77.09
2017-11-15T07:57:40.811Z,77.19
2017-11-15T07:58:42.690Z,77.19
2017-11-15T07:59:44.574Z,77.09
2017-11-15T08:00:46.464Z,77.09
2017-11-15T08:02:00.616Z,77.56
2017-11-15T08:03:02.501Z,77.47
2017-11-15T08:04:04.388Z,77.76
2017-11-15T08:05:06.274Z,77.85
2017-11-15T08:06:08.093Z,77.85
2017-11-15T08:07:09.913Z,77.76
2017-11-15T08:08:11.795Z,77.66
2017-11-15T08:09:13.679Z,77.56
2017-11-15T08:10:15.563Z,77.19
2017-11-15T08:11:29.724Z,77.32
2017-11-15T08:12:31.607Z,77.03
2017-11-15T08:13:33.496Z,76.65
2017-11-15T08:14:35.383Z,76.65
2017-11-15T08:15:37.208Z,76.37
2017-11-15T08:16:39.026Z,76.27
2017-11-15T08:17:40.910Z,76.18
2017-11-15T08:18:42.795Z,75.79
2017-11-15T08:19:44.683Z,75.99
2017-11-15T08:20:58.894Z,76.18
2017-11-15T08:22:00.779Z,75.42
2017-11-15T08:23:02.667Z,75.99
2017-11-15T08:24:04.555Z,75.79
2017-11-15T08:25:06.376Z,75.51
2017-11-15T08:26:08.203Z,75.70
2017-11-15T08:27:10.080Z,75.42
2017-11-15T08:28:11.968Z,75.51
2017-11-15T08:29:13.857Z,75.42
2017-11-15T08:30:28.063Z,75.07
2017-11-15T08:31:29.948Z,75.16
2017-11-15T08:32:31.835Z,75.45
2017-11-15T08:33:33.724Z,74.79
2017-11-15T08:34:35.545Z,74.79
2017-11-15T08:35:37.367Z,74.75
2017-11-15T08:36:39.253Z,74.84
2017-11-15T08:37:41.137Z,74.46
2017-11-15T08:38:43.024Z,74.94
2017-11-15T08:39:57.183Z,74.56
2017-11-15T08:40:59.069Z,74.60
2017-11-15T08:42:00.954Z,74.79
2017-11-15T08:43:02.843Z,74.60
2017-11-15T08:44:04.665Z,74.50
2017-11-15T08:45:06.486Z,74.69
2017-11-15T08:46:08.368Z,74.31
2017-11-15T08:47:10.253Z,73.93
2017-11-15T08:48:12.144Z,73.93
2017-11-15T08:49:26.304Z,74.02
2017-11-15T08:50:28.196Z,74.02
2017-11-15T08:51:30.081Z,74.02
2017-11-15T08:52:31.969Z,73.93
2017-11-15T08:53:33.793Z,74.12
2017-11-15T08:54:35.615Z,74.12
2017-11-15T08:55:37.500Z,73.93
2017-11-15T08:56:39.386Z,73.65
2017-11-15T08:57:41.282Z,73.45
2017-11-15T08:58:55.434Z,73.74
2017-11-15T08:59:57.318Z,73.93
2017-11-15T09:00:59.206Z,73.83
2017-11-15T09:02:01.111Z,74.02
2017-11-15T09:03:02.917Z,73.45
2017-11-15T09:04:04.737Z,73.36
2017-11-15T09:05:06.624Z,73.26
2017-11-15T09:06:08.508Z,73.17
2017-11-15T09:07:10.395Z,72.97
2017-11-15T09:08:24.552Z,73.36
2017-11-15T09:09:26.438Z,72.97
2017-11-15T09:10:28.323Z,72.97
2017-11-15T09:11:30.212Z,73.17
2017-11-15T09:12:32.035Z,73.36
2017-11-15T09:13:33.856Z,72.69
2017-11-15T09:14:35.739Z,72.69
2017-11-15T09:15:37.627Z,73.26
2017-11-15T09:16:39.525Z,73.36
2017-11-15T09:17:53.674Z,74.02
2017-11-15T09:18:55.560Z,73.83
2017-11-15T09:19:57.455Z,73.83
2017-11-15T09:20:59.335Z,73.70
2017-11-15T09:22:01.162Z,73.99
2017-11-15T09:23:02.979Z,74.56
2017-11-15T09:24:04.864Z,74.65
2017-11-15T09:25:06.752Z,74.94
2017-11-15T09:26:08.640Z,75.19
2017-11-15T09:27:22.847Z,75.38
2017-11-15T09:28:24.733Z,75.09
2017-11-15T09:29:26.625Z,75.09
2017-11-15T09:30:28.514Z,75.76
2017-11-15T09:31:30.333Z,75.38
2017-11-15T09:32:32.156Z,75.19
2017-11-15T09:33:34.041Z,76.33
2017-11-15T09:34:35.925Z,76.61
2017-11-15T09:35:37.811Z,75.95
2017-11-15T09:36:51.969Z,76.14
2017-11-15T09:37:53.848Z,76.23
2017-11-15T09:38:55.734Z,77.09
2017-11-15T09:39:57.622Z,77.19
2017-11-15T09:40:59.443Z,76.61
2017-11-15T09:42:01.264Z,77.09
2017-11-15T09:43:03.147Z,76.90
2017-11-15T09:44:05.032Z,76.52
2017-11-15T09:45:06.919Z,77.47
2017-11-15T09:46:21.075Z,77.47
2017-11-15T09:47:22.958Z,77.28
2017-11-15T09:48:24.847Z,77.66
2017-11-15T09:49:26.731Z,77.91
2017-11-15T09:50:28.548Z,77.62
2017-11-15T09:51:30.367Z,78.00
2017-11-15T09:52:32.253Z,78.57
2017-11-15T09:53:34.137Z,78.77
2017-11-15T09:54:36.022Z,78.96
2017-11-15T09:55:50.177Z,78.67
2017-11-15T09:56:52.059Z,78.67
2017-11-15T09:57:53.947Z,78.77
2017-11-15T09:58:55.833Z,78.77
2017-11-15T09:59:57.658Z,78.77
2017-11-15T10:00:59.475Z,78.67
2017-11-15T10:02:01.360Z,78.00
2017-11-15T10:03:03.240Z,77.85
2017-11-15T10:04:05.129Z,77.85
2017-11-15T10:05:19.284Z,77.56
2017-11-15T10:06:21.169Z,77.76
2017-11-15T10:07:23.055Z,77.47
2017-11-15T10:08:24.939Z,77.00
2017-11-15T10:09:26.759Z,77.19
2017-11-15T10:10:28.579Z,76.90
2017-11-15T10:11:30.458Z,76.23
2017-11-15T10:12:32.351Z,76.42
2017-11-15T10:13:34.234Z,76.04
2017-11-15T10:14:48.386Z,76.14
2017-11-15T10:15:50.271Z,76.33
2017-11-15T10:16:52.163Z,76.14
2017-11-15T10:17:54.045Z,76.33
2017-11-15T10:18:55.867Z,76.42
2017-11-15T10:19:57.684Z,77.05
2017-11-15T10:20:59.565Z,77.53
2017-11-15T10:22:01.450Z,78.96
2017-11-15T10:23:03.337Z,79.68
2017-11-15T10:24:17.497Z,80.82
2017-11-15T10:25:19.381Z,81.01
2017-11-15T10:26:21.261Z,80.53
2017-11-15T10:27:23.146Z,79.86
2017-11-15T10:28:24.967Z,80.53
2017-11-15T10:29:26.786Z,80.44
2017-11-15T10:30:28.669Z,80.19
2017-11-15T10:31:30.555Z,80.29
2017-11-15T10:32:32.441Z,79.72
2017-11-15T10:33:46.598Z,79.24
2017-11-15T10:34:48.480Z,79.14
2017-11-15T10:35:50.368Z,79.52
2017-11-15T10:36:52.254Z,79.33
2017-11-15T10:37:54.075Z,79.09
2017-11-15T10:38:55.895Z,78.90
2017-11-15T10:39:57.775Z,78.99
2017-11-15T10:40:59.663Z,78.52
2017-11-15T10:42:01.548Z,78.33
2017-11-15T10:43:15.704Z,77.76
2017-11-15T10:44:17.590Z,77.37
2017-11-15T10:45:19.475Z,77.66
2017-11-15T10:46:21.361Z,77.47
2017-11-15T10:47:23.180Z,77.19
2017-11-15T10:48:25.004Z,77.37
2017-11-15T10:49:26.884Z,77.13
2017-11-15T10:50:28.772Z,76.94
2017-11-15T10:51:30.666Z,76.56
2017-11-15T10:52:44.829Z,76.21
2017-11-15T10:53:46.700Z,75.26
2017-11-15T10:54:48.587Z,75.16
2017-11-15T10:55:50.475Z,74.69
2017-11-15T10:56:52.296Z,74.79
2017-11-15T10:57:54.117Z,74.31
2017-11-15T10:58:56.000Z,74.31
2017-11-15T10:59:57.886Z,74.69
2017-11-15T11:00:59.775Z,74.21
2017-11-15T11:02:13.936Z,73.83
2017-11-15T11:03:15.818Z,73.68
2017-11-15T11:04:17.705Z,73.93
2017-11-15T11:05:19.592Z,73.87
2017-11-15T11:06:21.417Z,73.74
2017-11-15T11:07:23.238Z,74.21
2017-11-15T11:08:25.126Z,73.65
2017-11-15T11:09:27.012Z,73.83
2017-11-15T11:10:28.902Z,74.02
2017-11-15T11:11:43.061Z,73.45
2017-11-15T11:12:44.946Z,73.49
2017-11-15T11:13:46.833Z,73.17
2017-11-15T11:14:48.726Z,73.26
2017-11-15T11:15:50.546Z,73.39
2017-11-15T11:16:52.369Z,73.30
2017-11-15T11:17:54.254Z,73.01
2017-11-15T11:18:56.139Z,72.82
2017-11-15T11:19:58.029Z,72.25
2017-11-15T11:21:12.190Z,72.25
2017-11-15T11:22:14.073Z,72.25
2017-11-15T11:23:15.964Z,72.53
2017-11-15T11:24:17.852Z,72.53
2017-11-15T11:25:19.674Z,72.34
2017-11-15T11:26:21.497Z,72.16
2017-11-15T11:27:23.393Z,71.96
2017-11-15T11:28:25.280Z,71.68
2017-11-15T11:29:27.167Z,71.62
2017-11-15T11:30:41.326Z,71.62
2017-11-15T11:31:43.215Z,71.14
2017-11-15T11:32:45.101Z,71.23
2017-11-15T11:33:47.017Z,71.81
2017-11-15T11:34:48.836Z,71.23
2017-11-15T11:35:50.656Z,71.23
2017-11-15T11:36:52.576Z,71.23
2017-11-15T11:37:54.458Z,71.43
2017-11-15T11:38:56.347Z,71.62
2017-11-15T11:40:10.506Z,71.23
2017-11-15T11:41:12.396Z,71.43
2017-11-15T11:42:14.281Z,71.43
2017-11-15T11:43:16.169Z,70.95
2017-11-15T11:44:17.995Z,70.57
2017-11-15T11:45:19.816Z,70.19
2017-11-15T11:46:21.704Z,70.19
2017-11-15T11:47:23.589Z,70.19
2017-11-15T11:48:25.478Z,69.81
2017-11-15T11:49:39.638Z,70.00
2017-11-15T11:50:41.523Z,70.19
2017-11-15T11:51:43.410Z,70.00
2017-11-15T11:52:45.301Z,70.09
2017-11-15T11:53:47.125Z,70.47
2017-11-15T11:54:48.945Z,70.47
2017-11-15T11:55:50.833Z,70.57
2017-11-15T11:56:52.717Z,70.47
2017-11-15T11:57:54.621Z,70.57
2017-11-15T11:59:08.770Z,70.76
2017-11-15T12:00:10.657Z,70.67
2017-11-15T12:01:12.564Z,70.28
2017-11-15T12:02:14.434Z,70.47
2017-11-15T12:03:16.261Z,70.76
2017-11-15T12:04:18.079Z,70.47
2017-11-15T12:05:19.967Z,70.57
2017-11-15T12:06:21.851Z,70.76
2017-11-15T12:07:23.751Z,71.33
2017-11-15T12:08:37.950Z,71.58
2017-11-15T12:09:39.841Z,71.20
2017-11-15T12:10:41.726Z,71.48
2017-11-15T12:11:43.618Z,71.58
2017-11-15T12:12:45.441Z,71.68
2017-11-15T12:13:47.262Z,71.68
2017-11-15T12:14:49.150Z,71.87
2017-11-15T12:15:51.035Z,71.77
2017-11-15T12:16:52.924Z,71.87
2017-11-15T12:18:07.081Z,71.39
2017-11-15T12:19:08.968Z,71.58
2017-11-15T12:20:10.857Z,71.87
2017-11-15T12:21:12.745Z,72.06
2017-11-15T12:22:14.570Z,71.87
2017-11-15T12:23:16.390Z,71.77
2017-11-15T12:24:18.274Z,72.16
2017-11-15T12:25:20.160Z,71.68
2017-11-15T12:26:22.048Z,71.91
2017-11-15T12:27:36.204Z,71.81
2017-11-15T12:28:38.091Z,71.68
2017-11-15T12:29:39.977Z,72.19
2017-11-15T12:30:41.867Z,72.06
2017-11-15T12:31:43.693Z,71.81
2017-11-15T12:32:45.552Z,71.91
2017-11-15T12:33:47.398Z,72.09
2017-11-15T12:34:49.286Z,72.09
2017-11-15T12:35:51.175Z,72.28
2017-11-15T12:37:05.334Z,72.19
2017-11-15T12:38:07.222Z,72.00
2017-11-15T12:39:09.109Z,71.91
2017-11-15T12:40:10.997Z,72.00
2017-11-15T12:41:12.820Z,72.09
2017-11-15T12:42:14.642Z,72.19
2017-11-15T12:43:16.531Z,72.28
2017-11-15T12:44:18.416Z,71.91
2017-11-15T12:45:20.305Z,72.28
2017-11-15T12:46:34.464Z,72.00
2017-11-15T12:47:36.350Z,72.00
2017-11-15T12:48:38.239Z,71.91
2017-11-15T12:49:40.125Z,72.34
2017-11-15T12:50:41.947Z,72.34
2017-11-15T12:51:43.768Z,72.34
2017-11-15T12:52:45.650Z,72.82
2017-11-15T12:53:47.538Z,72.63
2017-11-15T12:54:49.427Z,72.72
2017-11-15T12:56:03.637Z,73.11
2017-11-15T12:57:05.524Z,72.63
2017-11-15T12:58:07.411Z,73.11
2017-11-15T12:59:09.302Z,72.82
2017-11-15T13:00:11.129Z,72.53
2017-11-15T13:01:12.945Z,72.63
2017-11-15T13:02:14.830Z,72.82
2017-11-15T13:03:16.714Z,73.01
2017-11-15T13:04:18.625Z,73.49
2017-11-15T13:05:32.795Z,73.49
2017-11-15T13:06:34.681Z,73.39
2017-11-15T13:07:36.569Z,74.06
2017-11-15T13:08:38.464Z,73.96
2017-11-15T13:09:40.279Z,74.06
2017-11-15T13:10:42.104Z,73.87
2017-11-15T13:11:43.990Z,74.54
2017-11-15T13:12:45.872Z,74.63
2017-11-15T13:13:47.766Z,74.63
2017-11-15T13:15:01.974Z,74.63
2017-11-15T13:16:03.867Z,74.35
2017-11-15T13:17:05.751Z,74.54
2017-11-15T13:18:07.641Z,74.44
2017-11-15T13:19:09.463Z,74.25
2017-11-15T13:20:11.286Z,74.35
2017-11-15T13:21:13.177Z,74.06
2017-11-15T13:22:15.062Z,73.87
2017-11-15T13:23:16.949Z,73.58
2017-11-15T13:24:31.108Z,74.25
2017-11-15T13:25:32.994Z,73.52
2017-11-15T13:26:34.882Z,73.72
2017-11-15T13:27:36.770Z,73.52
2017-11-15T13:28:38.592Z,73.58
2017-11-15T13:29:40.417Z,73.58
2017-11-15T13:30:42.322Z,73.30
2017-11-15T13:31:44.226Z,73.21
2017-11-15T13:32:46.112Z,73.58
2017-11-15T13:34:00.268Z,73.58